createdAt,value
2023-04-21T00:02:22.080Z,5.25
2023-04-21T00:04:51.712Z,5.29
2023-04-21T00:07:20.325Z,5.25
2023-04-21T00:09:47.940Z,5.26
2023-04-21T00:12:15.613Z,5.21
2023-04-21T00:14:43.308Z,5.28
2023-04-21T00:17:10.945Z,5.25
2023-04-21T00:19:38.522Z,5.31
2023-04-21T00:22:12.061Z,5.31
2023-04-21T00:24:39.613Z,5.30
2023-04-21T00:27:07.206Z,5.24
2023-04-21T00:29:34.794Z,5.18
2023-04-21T00:32:03.792Z,5.13
2023-04-21T00:34:31.418Z,5.08
2023-04-21T00:36:58.981Z,5.05
2023-04-21T00:39:27.893Z,5.07
2023-04-21T00:41:55.672Z,5.14
2023-04-21T00:44:23.379Z,4.99
2023-04-21T00:46:50.973Z,5.00
2023-04-21T00:49:18.789Z,4.92
2023-04-21T00:51:46.775Z,5.00
2023-04-21T00:54:15.277Z,4.98
2023-04-21T00:56:44.388Z,5.01
2023-04-21T00:59:12.030Z,4.99
2023-04-21T01:01:40.147Z,5.04
2023-04-21T01:04:10.288Z,5.04
2023-04-21T01:06:38.166Z,5.06
2023-04-21T01:09:07.928Z,5.11
2023-04-21T01:11:36.256Z,5.17
2023-04-21T01:14:05.357Z,5.18
2023-04-21T01:16:33.714Z,5.24
2023-04-21T01:19:02.383Z,5.16
2023-04-21T01:21:31.991Z,5.06
2023-04-21T01:24:01.116Z,5.04
2023-04-21T01:26:28.642Z,5.00
2023-04-21T01:28:57.978Z,5.02
2023-04-21T01:31:27.355Z,4.94
2023-04-21T01:33:55.415Z,4.90
2023-04-21T01:36:23.441Z,4.89
2023-04-21T01:38:51.393Z,4.96
2023-04-21T01:41:20.809Z,4.93
2023-04-21T01:43:48.488Z,4.89
2023-04-21T01:46:16.237Z,4.88
2023-04-21T01:48:43.907Z,4.90
2023-04-21T01:51:11.558Z,4.88
2023-04-21T01:53:39.191Z,4.83
2023-04-21T01:56:07.444Z,4.83
2023-04-21T01:58:36.317Z,4.93
2023-04-21T02:01:04.085Z,4.93
2023-04-21T02:03:31.880Z,4.94
2023-04-21T02:05:59.547Z,4.93
2023-04-21T02:08:27.138Z,4.89
2023-04-21T02:10:54.871Z,4.99
2023-04-21T02:13:22.470Z,5.03
2023-04-21T02:15:59.564Z,4.89
2023-04-21T02:18:34.528Z,4.92
2023-04-21T02:21:02.926Z,4.92
2023-04-21T02:23:30.518Z,4.90
2023-04-21T02:25:58.089Z,4.97
2023-04-21T02:28:25.619Z,4.97
2023-04-21T02:30:54.543Z,4.77
2023-04-21T02:33:22.217Z,4.85
2023-04-21T02:35:49.828Z,4.77
2023-04-21T02:38:17.390Z,4.79
2023-04-21T02:40:44.916Z,4.78
2023-04-21T02:43:12.694Z,4.74
2023-04-21T02:45:40.566Z,4.75
2023-04-21T02:48:09.686Z,4.76
2023-04-21T02:50:38.043Z,4.81
2023-04-21T02:53:05.696Z,4.80
2023-04-21T02:55:33.336Z,4.79
2023-04-21T02:58:00.846Z,4.83
2023-04-21T03:00:28.441Z,4.82
2023-04-21T03:02:56.302Z,4.92
2023-04-21T03:05:25.331Z,4.99
2023-04-21T03:07:52.895Z,4.99
2023-04-21T03:10:20.477Z,4.95
2023-04-21T03:12:48.255Z,4.93
2023-04-21T03:15:16.844Z,4.97
2023-04-21T03:17:44.436Z,4.98
2023-04-21T03:20:12.724Z,4.99
2023-04-21T03:22:41.615Z,5.00
2023-04-21T03:25:09.171Z,4.98
2023-04-21T03:27:37.425Z,5.00
2023-04-21T03:30:06.676Z,5.02
2023-04-21T03:32:34.335Z,5.00
2023-04-21T03:35:01.905Z,4.97
2023-04-21T03:37:29.482Z,5.04
2023-04-21T03:39:58.548Z,5.12
2023-04-21T03:42:26.275Z,5.07
2023-04-21T03:44:53.854Z,5.04
2023-04-21T03:47:21.416Z,5.00
2023-04-21T03:49:48.940Z,5.01
2023-04-21T03:52:16.574Z,5.08
2023-04-21T03:54:44.088Z,5.16
2023-04-21T03:57:12.994Z,5.08
2023-04-21T03:59:40.573Z,5.17
2023-04-21T04:02:08.283Z,5.01
2023-04-21T04:04:36.633Z,5.01
2023-04-21T04:07:04.933Z,5.00
2023-04-21T04:09:33.328Z,5.04
2023-04-21T04:12:02.792Z,5.06
2023-04-21T04:14:31.712Z,5.08
2023-04-21T04:16:59.848Z,5.07
2023-04-21T04:19:31.423Z,5.10
2023-04-21T04:21:59.833Z,5.10
2023-04-21T04:24:27.656Z,5.06
2023-04-21T04:26:58.168Z,5.07
2023-04-21T04:29:26.978Z,5.05
2023-04-21T04:31:56.230Z,4.93
2023-04-21T04:34:24.163Z,4.91
2023-04-21T04:36:51.841Z,5.04
2023-04-21T04:39:19.651Z,4.92
2023-04-21T04:41:48.597Z,5.08
2023-04-21T04:44:18.083Z,5.10
2023-04-21T04:46:46.417Z,5.10
2023-04-21T04:49:15.453Z,5.06
2023-04-21T04:51:43.051Z,5.04
2023-04-21T04:54:10.654Z,5.06
2023-04-21T04:56:38.307Z,5.10
2023-04-21T04:59:06.684Z,5.13
2023-04-21T05:01:34.286Z,5.13
2023-04-21T05:04:02.097Z,5.08
2023-04-21T05:06:32.156Z,5.20
2023-04-21T05:08:59.784Z,5.12
2023-04-21T05:11:27.379Z,5.10
2023-04-21T05:13:55.071Z,5.08
2023-04-21T05:16:22.738Z,5.11
2023-04-21T05:18:54.003Z,5.12
2023-04-21T05:21:27.483Z,5.05
2023-04-21T05:23:57.187Z,5.14
2023-04-21T05:26:25.650Z,5.16
2023-04-21T05:28:53.221Z,5.16
2023-04-21T05:31:20.888Z,5.23
2023-04-21T05:33:48.428Z,5.17
2023-04-21T05:36:16.021Z,5.17
2023-04-21T05:38:43.656Z,5.17
2023-04-21T05:41:12.656Z,5.17
2023-04-21T05:43:40.209Z,5.24
2023-04-21T05:46:10.246Z,5.30
2023-04-21T05:48:38.060Z,5.14
2023-04-21T05:51:12.385Z,5.19
2023-04-21T05:53:40.055Z,5.10
2023-04-21T05:56:09.707Z,5.11
2023-04-21T05:58:39.108Z,5.28
2023-04-21T06:01:07.306Z,5.24
2023-04-21T06:03:35.083Z,5.33
2023-04-21T06:06:03.852Z,5.44
2023-04-21T06:08:31.512Z,5.40
2023-04-21T06:10:59.202Z,5.51
2023-04-21T06:13:27.769Z,5.46
2023-04-21T06:15:56.856Z,5.61
2023-04-21T06:18:25.086Z,5.63
2023-04-21T06:20:52.789Z,5.61
2023-04-21T06:23:20.548Z,5.66
2023-04-21T06:25:48.148Z,5.78
2023-04-21T06:28:15.681Z,5.74
2023-04-21T06:30:44.839Z,5.79
2023-04-21T06:33:13.685Z,5.76
2023-04-21T06:35:41.314Z,5.68
2023-04-21T06:38:09.782Z,5.69
2023-04-21T06:40:37.469Z,5.78
2023-04-21T06:43:05.142Z,5.72
2023-04-21T06:45:32.730Z,5.81
2023-04-21T06:48:00.352Z,5.80
2023-04-21T06:50:29.388Z,5.78
2023-04-21T06:52:56.973Z,5.77
2023-04-21T06:55:24.675Z,5.74
2023-04-21T06:57:52.356Z,5.78
2023-04-21T07:00:20.141Z,5.82
2023-04-21T07:02:47.928Z,5.79
2023-04-21T07:05:15.677Z,5.84
2023-04-21T07:07:44.591Z,5.90
2023-04-21T07:10:12.489Z,6.00
2023-04-21T07:12:40.138Z,6.00
2023-04-21T07:15:09.472Z,6.14
2023-04-21T07:17:37.100Z,6.24
2023-04-21T07:20:05.324Z,6.35
2023-04-21T07:22:34.521Z,6.37
2023-04-21T07:27:34.074Z,6.57
2023-04-21T07:30:01.746Z,6.65
2023-04-21T07:32:29.325Z,6.63
2023-04-21T07:34:56.900Z,6.73
2023-04-21T07:37:24.937Z,6.97
2023-04-21T07:39:52.681Z,7.06
2023-04-21T07:42:22.421Z,7.48
2023-04-21T07:44:50.304Z,7.73
2023-04-21T07:47:17.915Z,7.61
2023-04-21T07:49:45.628Z,7.74
2023-04-21T07:52:13.188Z,7.56
2023-04-21T07:54:40.831Z,7.71
2023-04-21T07:57:08.445Z,7.89
2023-04-21T07:59:37.331Z,8.05
2023-04-21T08:02:05.018Z,8.26
2023-04-21T08:04:32.849Z,8.35
2023-04-21T08:07:00.840Z,8.37
2023-04-21T08:09:28.599Z,8.22
2023-04-21T08:11:57.170Z,8.61
2023-04-21T08:14:26.767Z,9.10
2023-04-21T08:16:57.174Z,9.32
2023-04-21T08:19:25.159Z,9.61
2023-04-21T08:21:52.955Z,9.73
2023-04-21T08:24:20.985Z,10.01
2023-04-21T08:26:48.727Z,10.06
2023-04-21T08:29:16.584Z,9.98
2023-04-21T08:31:44.232Z,10.15
2023-04-21T08:34:13.601Z,10.02
2023-04-21T08:36:41.603Z,10.00
2023-04-21T08:39:09.388Z,10.04
2023-04-21T08:41:40.095Z,10.31
2023-04-21T08:44:07.683Z,10.45
2023-04-21T08:46:36.273Z,10.41
2023-04-21T08:49:04.145Z,10.52
2023-04-21T08:51:33.840Z,10.48
2023-04-21T08:54:01.457Z,10.19
2023-04-21T08:56:29.067Z,10.08
2023-04-21T08:58:57.624Z,10.26
2023-04-21T09:01:25.283Z,10.28
2023-04-21T09:03:53.154Z,10.42
2023-04-21T09:06:21.386Z,10.38
2023-04-21T09:08:56.536Z,10.11
2023-04-21T09:11:24.404Z,10.29
2023-04-21T09:13:52.877Z,10.41
2023-04-21T09:16:22.661Z,10.58
2023-04-21T09:18:51.464Z,10.62
2023-04-21T09:21:20.178Z,10.86
2023-04-21T09:23:51.655Z,10.84
2023-04-21T09:26:22.743Z,10.69
2023-04-21T09:28:52.151Z,10.92
2023-04-21T09:31:21.038Z,11.07
2023-04-21T09:36:21.914Z,11.58
2023-04-21T09:38:57.590Z,11.70
2023-04-21T09:41:40.884Z,11.53
2023-04-21T09:44:08.464Z,11.61
2023-04-21T09:46:37.657Z,11.79
2023-04-21T09:49:07.071Z,11.87
2023-04-21T09:54:28.501Z,11.80
2023-04-21T09:57:01.720Z,11.92
2023-04-21T09:59:31.377Z,12.05
2023-04-21T10:01:59.413Z,12.08
2023-04-21T10:04:28.897Z,12.15
2023-04-21T10:06:57.249Z,12.08
2023-04-21T10:09:27.040Z,12.12
2023-04-21T10:11:55.554Z,12.54
2023-04-21T10:14:26.174Z,12.38
2023-04-21T10:16:57.893Z,12.90
2023-04-21T10:19:26.419Z,12.70
2023-04-21T10:21:57.198Z,12.53
2023-04-21T10:24:24.881Z,12.67
2023-04-21T10:26:54.821Z,12.69
2023-04-21T10:29:43.765Z,12.84
2023-04-21T10:32:32.825Z,13.02
2023-04-21T10:35:00.652Z,12.83
2023-04-21T10:37:32.450Z,13.03
2023-04-21T10:40:00.205Z,12.78
2023-04-21T10:42:31.139Z,12.57
2023-04-21T10:45:18.077Z,12.88
2023-04-21T10:47:48.901Z,13.23
2023-04-21T10:50:22.721Z,13.29
2023-04-21T10:52:56.258Z,13.41
2023-04-21T10:55:27.460Z,13.67
2023-04-21T10:57:55.055Z,14.00
2023-04-21T11:00:25.373Z,13.94
2023-04-21T11:03:00.930Z,13.69
2023-04-21T11:05:34.559Z,13.63
2023-04-21T11:08:11.195Z,13.69
2023-04-21T11:10:50.853Z,13.76
2023-04-21T11:13:21.858Z,14.04
2023-04-21T11:16:01.504Z,13.75
2023-04-21T11:18:39.817Z,13.94
2023-04-21T11:21:17.811Z,13.81
2023-04-21T11:23:52.994Z,13.65
2023-04-21T11:26:25.922Z,13.52
2023-04-21T11:28:53.518Z,13.83
2023-04-21T11:31:22.490Z,14.12
2023-04-21T11:33:51.221Z,14.48
2023-04-21T11:36:22.512Z,14.73
2023-04-21T11:38:50.285Z,14.77
2023-04-21T11:41:22.160Z,14.64
2023-04-21T11:43:50.080Z,14.17
2023-04-21T11:46:18.884Z,13.96
2023-04-21T11:48:47.860Z,13.82
2023-04-21T11:51:16.621Z,13.67
2023-04-21T11:53:44.301Z,13.97
2023-04-21T11:56:12.747Z,14.36
2023-04-21T11:58:40.557Z,14.96
2023-04-21T12:01:11.058Z,15.14
2023-04-21T12:03:38.826Z,15.31
2023-04-21T12:06:08.403Z,15.50
2023-04-21T12:08:36.130Z,15.21
2023-04-21T12:11:03.884Z,15.39
2023-04-21T12:13:32.794Z,15.71
2023-04-21T12:16:03.872Z,15.75
2023-04-21T12:18:34.892Z,16.04
2023-04-21T12:21:04.217Z,15.94
2023-04-21T12:23:33.153Z,15.72
2023-04-21T12:26:01.362Z,15.93
2023-04-21T12:28:31.176Z,16.07
2023-04-21T12:30:58.811Z,16.14
2023-04-21T12:33:26.806Z,16.58
2023-04-21T12:35:54.498Z,16.32
2023-04-21T12:38:22.163Z,16.32
2023-04-21T12:40:51.054Z,16.18
2023-04-21T12:43:18.594Z,15.94
2023-04-21T12:45:46.366Z,15.83
2023-04-21T12:48:13.952Z,16.04
2023-04-21T12:50:41.527Z,16.34
2023-04-21T12:53:09.112Z,16.49
2023-04-21T12:55:37.202Z,16.76
2023-04-21T12:58:06.061Z,16.66
2023-04-21T13:00:35.843Z,16.36
2023-04-21T13:03:04.426Z,16.42
2023-04-21T13:05:34.933Z,16.64
2023-04-21T13:08:02.494Z,16.51
2023-04-21T13:10:30.183Z,16.52
2023-04-21T13:12:57.767Z,16.14
2023-04-21T13:15:26.644Z,16.20
2023-04-21T13:17:54.346Z,16.02
2023-04-21T13:20:22.414Z,16.33
2023-04-21T13:22:50.059Z,16.10
2023-04-21T13:25:17.841Z,15.76
2023-04-21T13:27:46.766Z,16.01
2023-04-21T13:30:15.750Z,16.27
2023-04-21T13:32:44.753Z,16.36
2023-04-21T13:35:12.598Z,16.22
2023-04-21T13:37:41.256Z,16.07
2023-04-21T13:40:10.799Z,16.01
2023-04-21T13:42:39.322Z,16.36
2023-04-21T13:45:08.012Z,16.32
2023-04-21T13:47:36.091Z,16.47
2023-04-21T13:50:05.725Z,16.70
2023-04-21T13:52:34.880Z,16.89
2023-04-21T13:55:02.759Z,16.98
2023-04-21T13:57:30.583Z,16.83
2023-04-21T13:59:58.220Z,16.92
2023-04-21T14:02:26.146Z,17.02
2023-04-21T14:04:54.532Z,16.86
2023-04-21T14:07:26.162Z,16.45
2023-04-21T14:09:54.363Z,16.40
2023-04-21T14:12:22.128Z,16.25
2023-04-21T14:14:49.992Z,16.38
2023-04-21T14:17:17.826Z,16.55
2023-04-21T14:19:45.428Z,16.61
2023-04-21T14:22:13.342Z,16.79
2023-04-21T14:24:42.484Z,16.95
2023-04-21T14:27:10.722Z,17.01
2023-04-21T14:29:38.359Z,16.93
2023-04-21T14:32:06.119Z,16.76
2023-04-21T14:34:33.827Z,16.77
2023-04-21T14:37:01.629Z,16.73
2023-04-21T14:39:29.245Z,16.78
2023-04-21T14:41:58.218Z,16.93
2023-04-21T14:44:25.842Z,16.94
2023-04-21T14:47:05.678Z,16.62
2023-04-21T14:49:37.394Z,16.65
2023-04-21T14:52:05.308Z,16.67
2023-04-21T14:54:32.874Z,16.61
2023-04-21T14:57:17.884Z,16.61
2023-04-21T14:59:47.151Z,16.68
2023-04-21T15:02:15.129Z,16.53
2023-04-21T15:04:42.914Z,16.63
2023-04-21T15:07:10.544Z,16.48
2023-04-21T15:09:39.076Z,16.66
2023-04-21T15:12:08.200Z,16.71
2023-04-21T15:14:40.246Z,16.91
2023-04-21T15:17:08.524Z,17.03
2023-04-21T15:19:36.419Z,16.92
2023-04-21T15:22:04.866Z,16.97
2023-04-21T15:24:32.570Z,16.97
2023-04-21T15:27:01.303Z,17.08
2023-04-21T15:29:30.309Z,17.20
2023-04-21T15:31:57.992Z,17.19
2023-04-21T15:34:25.931Z,17.17
2023-04-21T15:36:54.525Z,17.17
2023-04-21T15:39:22.194Z,17.11
2023-04-21T15:41:49.799Z,17.18
2023-04-21T15:44:17.297Z,17.01
2023-04-21T15:46:46.276Z,17.13
2023-04-21T15:49:13.984Z,16.95
2023-04-21T15:51:42.053Z,17.08
2023-04-21T15:54:10.360Z,17.19
2023-04-21T15:56:38.063Z,16.97
2023-04-21T15:59:05.993Z,16.85
2023-04-21T16:01:33.955Z,16.75
2023-04-21T16:04:03.489Z,16.85
2023-04-21T16:06:31.550Z,16.57
2023-04-21T16:08:59.178Z,16.57
2023-04-21T16:11:29.084Z,16.29
2023-04-21T16:13:57.122Z,16.42
2023-04-21T16:16:24.736Z,16.40
2023-04-21T16:18:52.378Z,16.11
2023-04-21T16:21:21.608Z,16.05
2023-04-21T16:23:49.302Z,15.98
2023-04-21T16:26:16.898Z,15.93
2023-04-21T16:28:44.542Z,15.98
2023-04-21T16:31:12.673Z,15.86
2023-04-21T16:33:40.578Z,15.85
2023-04-21T16:36:08.388Z,16.09
2023-04-21T16:38:37.426Z,16.00
2023-04-21T16:41:04.995Z,16.04
2023-04-21T16:43:32.641Z,16.02
2023-04-21T16:46:00.333Z,16.06
2023-04-21T16:48:28.070Z,15.93
2023-04-21T16:50:55.786Z,15.92
2023-04-21T16:53:25.363Z,15.98
2023-04-21T16:55:54.412Z,15.91
2023-04-21T16:58:24.236Z,15.91
2023-04-21T17:00:52.014Z,15.99
2023-04-21T17:03:19.838Z,16.01
2023-04-21T17:05:47.578Z,15.98
2023-04-21T17:08:15.326Z,15.95
2023-04-21T17:10:42.894Z,15.96
2023-04-21T17:13:11.846Z,16.00
2023-04-21T17:15:39.659Z,15.94
2023-04-21T17:18:07.363Z,15.87
2023-04-21T17:20:35.076Z,14.99
2023-04-21T17:23:02.652Z,14.70
2023-04-21T17:25:30.259Z,14.25
2023-04-21T17:27:57.802Z,13.95
2023-04-21T17:30:27.036Z,13.65
2023-04-21T17:33:03.907Z,13.30
2023-04-21T17:35:37.932Z,13.11
2023-04-21T17:38:06.658Z,12.79
2023-04-21T17:40:34.320Z,12.90
2023-04-21T17:43:01.927Z,12.72
2023-04-21T17:45:31.187Z,12.61
2023-04-21T17:47:58.879Z,12.64
2023-04-21T17:50:27.625Z,12.43
2023-04-21T17:52:55.312Z,12.42
2023-04-21T17:55:23.321Z,12.58
2023-04-21T17:57:51.055Z,12.35
2023-04-21T18:00:19.980Z,12.37
2023-04-21T18:02:49.045Z,12.42
2023-04-21T18:05:17.114Z,12.42
2023-04-21T18:07:44.851Z,12.43
2023-04-21T18:10:12.764Z,12.26
2023-04-21T18:12:40.695Z,12.40
2023-04-21T18:15:10.308Z,12.53
2023-04-21T18:17:38.145Z,12.41
2023-04-21T18:20:08.419Z,12.43
2023-04-21T18:22:36.040Z,12.31
2023-04-21T18:25:04.030Z,12.27
2023-04-21T18:27:31.599Z,12.21
2023-04-21T18:29:59.163Z,12.07
2023-04-21T18:32:26.813Z,12.00
2023-04-21T18:34:54.594Z,12.05
2023-04-21T18:37:23.628Z,12.15
2023-04-21T18:39:51.196Z,12.16
2023-04-21T18:42:18.827Z,11.98
2023-04-21T18:44:46.442Z,12.01
2023-04-21T18:47:15.361Z,11.69
2023-04-21T18:49:42.999Z,11.58
2023-04-21T18:52:10.585Z,11.56
2023-04-21T18:54:39.725Z,11.34
2023-04-21T18:57:08.504Z,11.35
2023-04-21T18:59:36.075Z,11.15
2023-04-21T19:02:05.986Z,11.03
2023-04-21T19:04:33.885Z,11.22
2023-04-21T19:07:01.866Z,10.91
2023-04-21T19:09:29.875Z,10.93
2023-04-21T19:11:58.836Z,10.95
2023-04-21T19:14:27.818Z,10.98
2023-04-21T19:16:55.550Z,10.99
2023-04-21T19:19:24.017Z,11.06
2023-04-21T19:21:51.558Z,10.89
2023-04-21T19:24:19.171Z,10.85
2023-04-21T19:26:46.881Z,10.91
2023-04-21T19:29:15.909Z,10.90
2023-04-21T19:31:43.526Z,10.88
2023-04-21T19:34:11.131Z,10.86
2023-04-21T19:36:38.770Z,10.94
2023-04-21T19:39:07.349Z,10.77
2023-04-21T19:41:34.927Z,10.76
2023-04-21T19:44:02.471Z,10.63
2023-04-21T19:46:32.075Z,10.40
2023-04-21T19:48:59.717Z,10.54
2023-04-21T19:51:27.875Z,10.40
2023-04-21T19:54:10.112Z,10.29
2023-04-21T19:56:38.747Z,10.34
2023-04-21T19:59:06.373Z,10.38
2023-04-21T20:01:35.593Z,10.21
2023-04-21T20:04:04.068Z,10.07
2023-04-21T20:06:32.032Z,10.11
2023-04-21T20:08:59.677Z,10.21
2023-04-21T20:11:29.185Z,10.21
2023-04-21T20:13:56.961Z,10.20
2023-04-21T20:16:26.228Z,10.13
2023-04-21T20:18:55.475Z,10.12
2023-04-21T20:21:23.204Z,9.96
2023-04-21T20:23:50.738Z,9.98
2023-04-21T20:26:18.455Z,10.00
2023-04-21T20:28:46.033Z,10.11
2023-04-21T20:31:13.689Z,10.00
2023-04-21T20:33:41.245Z,10.11
2023-04-21T20:36:11.764Z,10.15
2023-04-21T20:38:39.292Z,10.04
2023-04-21T20:41:07.097Z,10.08
2023-04-21T20:43:34.762Z,10.12
2023-04-21T20:46:03.306Z,10.14
2023-04-21T20:48:31.378Z,10.05
2023-04-21T20:50:58.945Z,10.01
2023-04-21T20:53:27.935Z,9.96
2023-04-21T20:55:55.698Z,10.03
2023-04-21T20:58:24.402Z,10.04
2023-04-21T21:00:52.187Z,9.99
2023-04-21T21:03:20.558Z,10.05
2023-04-21T21:05:48.654Z,10.10
2023-04-21T21:08:16.402Z,10.12
2023-04-21T21:10:45.411Z,10.19
2023-04-21T21:13:12.962Z,10.07
2023-04-21T21:15:40.551Z,10.06
2023-04-21T21:18:08.317Z,10.02
2023-04-21T21:20:36.094Z,9.98
2023-04-21T21:23:03.770Z,10.11
2023-04-21T21:25:31.339Z,10.20
2023-04-21T21:28:00.319Z,10.21
2023-04-21T21:30:27.962Z,10.25
2023-04-21T21:32:55.916Z,10.11
2023-04-21T21:35:23.701Z,10.09
2023-04-21T21:37:51.314Z,10.10
2023-04-21T21:40:19.030Z,10.10
2023-04-21T21:42:46.576Z,10.09
2023-04-21T21:45:15.756Z,10.30
2023-04-21T21:47:45.634Z,10.30
2023-04-21T21:50:13.700Z,10.30
2023-04-21T21:52:41.554Z,10.27
2023-04-21T21:55:10.135Z,10.31
2023-04-21T21:57:37.983Z,10.45
2023-04-21T22:00:08.084Z,10.34
2023-04-21T22:02:37.415Z,10.21
2023-04-21T22:05:05.686Z,10.24
2023-04-21T22:07:33.289Z,10.06
2023-04-21T22:10:01.166Z,9.97
2023-04-21T22:12:28.807Z,9.99
2023-04-21T22:14:56.554Z,9.98
2023-04-21T22:17:24.781Z,10.06
2023-04-21T22:19:53.736Z,10.10
2023-04-21T22:22:21.506Z,10.04
2023-04-21T22:24:49.125Z,10.00
2023-04-21T22:27:16.709Z,10.09
2023-04-21T22:29:44.391Z,10.01
2023-04-21T22:32:12.062Z,10.03
2023-04-21T22:34:39.818Z,9.99
2023-04-21T22:37:08.771Z,10.05
2023-04-21T22:39:38.027Z,10.02
2023-04-21T22:42:06.836Z,9.98
2023-04-21T22:44:34.462Z,9.98
2023-04-21T22:47:02.095Z,10.04
2023-04-21T22:49:29.835Z,10.06
2023-04-21T22:51:57.482Z,9.99
2023-04-21T22:54:26.449Z,10.00
2023-04-21T22:56:54.199Z,10.03
2023-04-21T22:59:22.031Z,9.96
2023-04-21T23:01:49.952Z,9.94
2023-04-21T23:04:17.915Z,9.92
2023-04-21T23:06:45.595Z,9.90
2023-04-21T23:09:13.407Z,9.91
2023-04-21T23:11:45.205Z,9.96
2023-04-21T23:14:12.783Z,9.96
2023-04-21T23:16:40.640Z,9.91
2023-04-21T23:19:08.615Z,9.93
2023-04-21T23:21:36.389Z,10.04
2023-04-21T23:24:04.085Z,9.80
2023-04-21T23:26:31.663Z,9.78
2023-04-21T23:29:00.708Z,9.72
2023-04-21T23:31:28.650Z,9.69
2023-04-21T23:33:56.590Z,9.55
2023-04-21T23:36:24.238Z,9.47
2023-04-21T23:38:51.890Z,9.42
2023-04-21T23:41:19.519Z,9.45
2023-04-21T23:43:47.338Z,9.53
2023-04-21T23:46:16.419Z,9.56
2023-04-21T23:48:44.173Z,9.50
2023-04-21T23:51:11.845Z,9.48
2023-04-21T23:53:39.491Z,9.48
2023-04-21T23:56:07.621Z,9.46
2023-04-21T23:58:35.316Z,9.48
